Green Pond, New Jersey
Current Conditions -  °F | °C
As of 10:53 PM on Wednesday 17 Dec 2014 (Local Time) from KFWN Reporting Station
Overcast Overcast  
Wind Chill: 34°   Ceiling: 4000
Heat Index: 40°   Visibility: 10mi
Dew Point: 26°   Wind: 9mph
Humidity: 58%   Direction: 300°WNW
Pressure: 29.9"   Gusts: 17mph
Location:  41.058°N, 74.4257°W
Report Text: KFWN 180353Z AUTO 30008G15KT 10SM OVC040 04/M03 A2990 RMK AO2 SLP126 T00441033
Loading
Personal Weather Stations






























Interactive Weather Map New forecast layout! Learn more

10-Day Weather Forecast

Advertisements
Track Severe Weather on mobile